This is the latest recevied weather packets stored in our database for station/object DH8TOM-3. If no packets are shown the sender has not sent any weather packets the latest 10 day(s).
| Time | Temp. | Humidity | Pressure | Rain* | Wind** | Luminosity | Snow |
|---|---|---|---|---|---|---|---|
| 1777865156 | 17.78° C | 55% | 1011.5 hPa | 0 mm | - | - | - |
| 1777864855 | 17.78° C | 55% | 1011.6 hPa | 0 mm | - | - | - |
| 1777862748 | 17.78° C | 54% | 1011.8 hPa | 0 mm | - | - | - |
| 1777847397 | 20° C | 44% | 1010.5 hPa | 0 mm | - | - | - |
| 1777846795 | 20° C | 45% | 1010.5 hPa | 0 mm | - | - | - |
| 1777841076 | 21.67° C | 46% | 1010 hPa | 0 mm | - | - | - |
| 1777839872 | 21.67° C | 45% | 1010 hPa | 0 mm | - | - | - |
| 1777838969 | 21.67° C | 45% | 1010 hPa | 0 mm | - | - | - |
| 1777837765 | 22.22° C | 44% | 1010 hPa | 0 mm | - | - | - |
| 1777831745 | 23.33° C | 43% | 1009.4 hPa | 0 mm | - | - | - |
| 1777830240 | 24.44° C | 41% | 1009.2 hPa | 0 mm | - | - | - |
| 1777826327 | 25.56° C | 38% | 1009 hPa | 0 mm | - | - | - |
| 1777824822 | 25.56° C | 40% | 1009 hPa | 0 mm | - | - | - |
| 1777824521 | 25.56° C | 40% | 1009 hPa | 0 mm | - | - | - |
| 1777821210 | 25.56° C | 41% | 1009.6 hPa | 0 mm | - | - | - |
| 1777820909 | 25.56° C | 41% | 1009.6 hPa | 0 mm | - | - | - |
| 1777817598 | 25.56° C | 39% | 1010.3 hPa | 0 mm | - | - | - |
| 1777817297 | 25.56° C | 39% | 1010.3 hPa | 0 mm | - | - | - |
| 1777816996 | 25.56° C | 42% | 1010.5 hPa | 0 mm | - | - | - |
| 1777815491 | 25° C | 41% | 1010.7 hPa | 0 mm | - | - | - |
| 1777814889 | 25° C | 42% | 1010.9 hPa | 0 mm | - | - | - |
| 1777814298 | 25° C | 40% | 1011.2 hPa | 0 mm | - | - | - |
| 1777756516 | 18.89° C | 51% | 1014.7 hPa | 0 mm | - | - | - |
| 1777756194 | 18.89° C | 51% | 1014.7 hPa | 0 mm | - | - | - |
| 1777755592 | 18.89° C | 50% | 1014.7 hPa | 0 mm | - | - | - |
* Rain latest hour (hover to see other rain measurements)
** Current wind speed in m/s (hover to see current wind gust speed)